createdAt,value
2018-03-02T00:00:40.807Z,979.77
2018-03-02T00:01:40.975Z,979.70
2018-03-02T00:02:41.149Z,979.62
2018-03-02T00:03:41.313Z,979.73
2018-03-02T00:04:41.480Z,979.67
2018-03-02T00:05:41.659Z,979.64
2018-03-02T00:06:41.826Z,979.68
2018-03-02T00:07:41.994Z,979.65
2018-03-02T00:08:42.165Z,979.62
2018-03-02T00:09:42.336Z,979.64
2018-03-02T00:10:42.500Z,979.62
2018-03-02T00:11:42.674Z,979.55
2018-03-02T00:12:42.831Z,979.59
2018-03-02T00:13:43.006Z,979.56
2018-03-02T00:14:43.168Z,979.55
2018-03-02T00:15:43.339Z,979.61
2018-03-02T00:16:43.508Z,979.56
2018-03-02T00:17:43.675Z,979.53
2018-03-02T00:18:43.847Z,979.51
2018-03-02T00:19:44.017Z,979.53
2018-03-02T00:20:44.180Z,979.51
2018-03-02T00:21:44.348Z,979.49
2018-03-02T00:22:44.519Z,979.54
2018-03-02T00:23:44.686Z,979.49
2018-03-02T00:24:44.855Z,979.46
2018-03-02T00:25:45.023Z,979.42
2018-03-02T00:26:45.191Z,979.45
2018-03-02T00:27:45.360Z,979.46
2018-03-02T00:28:45.531Z,979.46
2018-03-02T00:29:45.693Z,979.42
2018-03-02T00:30:45.865Z,979.40
2018-03-02T00:31:46.046Z,979.35
2018-03-02T00:32:46.200Z,979.31
2018-03-02T00:33:46.373Z,979.29
2018-03-02T00:34:46.543Z,979.28
2018-03-02T00:35:46.710Z,979.31
2018-03-02T00:36:46.880Z,979.32
2018-03-02T00:37:47.047Z,979.32
2018-03-02T00:38:47.217Z,979.31
2018-03-02T00:39:47.380Z,979.35
2018-03-02T00:40:47.552Z,979.40
2018-03-02T00:41:47.720Z,979.39
2018-03-02T00:42:47.894Z,979.31
2018-03-02T00:43:48.056Z,979.32
2018-03-02T00:44:48.236Z,979.29
2018-03-02T00:45:48.393Z,979.28
2018-03-02T00:46:48.567Z,979.32
2018-03-02T00:47:48.735Z,979.22
2018-03-02T00:48:48.904Z,979.22
2018-03-02T00:49:49.074Z,979.21
2018-03-02T00:50:49.242Z,979.17
2018-03-02T00:51:49.406Z,979.15
2018-03-02T00:52:49.576Z,979.12
2018-03-02T00:53:49.745Z,979.15
2018-03-02T00:54:49.912Z,979.10
2018-03-02T00:55:50.087Z,979.10
2018-03-02T00:56:50.255Z,978.96
2018-03-02T00:57:50.422Z,979.00
2018-03-02T00:58:50.591Z,979.00
2018-03-02T00:59:50.763Z,979.03
2018-03-02T01:00:50.925Z,978.95
2018-03-02T01:01:51.089Z,979.00
2018-03-02T01:02:51.264Z,979.00
2018-03-02T01:03:51.436Z,978.97
2018-03-02T01:04:51.608Z,978.97
2018-03-02T01:05:51.774Z,978.96
2018-03-02T01:06:51.949Z,978.96
2018-03-02T01:07:52.112Z,978.95
2018-03-02T01:08:52.278Z,978.96
2018-03-02T01:09:52.449Z,978.91
2018-03-02T01:10:52.622Z,978.94
2018-03-02T01:11:52.796Z,978.94
2018-03-02T01:12:52.951Z,978.93
2018-03-02T01:13:53.119Z,978.95
2018-03-02T01:14:53.287Z,978.93
2018-03-02T01:15:53.464Z,978.88
2018-03-02T01:16:53.629Z,978.85
2018-03-02T01:17:53.791Z,978.89
2018-03-02T01:18:53.963Z,978.78
2018-03-02T01:19:54.127Z,978.84
2018-03-02T01:20:54.305Z,978.80
2018-03-02T01:21:54.464Z,978.79
2018-03-02T01:22:54.633Z,978.81
2018-03-02T01:23:54.802Z,978.79
2018-03-02T01:24:54.972Z,978.72
2018-03-02T01:25:55.143Z,978.71
2018-03-02T01:26:55.309Z,978.69
2018-03-02T01:27:55.478Z,978.69
2018-03-02T01:28:55.651Z,978.65
2018-03-02T01:29:55.816Z,978.65
2018-03-02T01:30:55.979Z,978.63
2018-03-02T01:31:56.214Z,978.63
2018-03-02T01:32:56.301Z,978.58
2018-03-02T01:33:56.471Z,978.55
2018-03-02T01:34:56.641Z,978.53
2018-03-02T01:35:56.799Z,978.54
2018-03-02T01:36:56.969Z,978.50
2018-03-02T01:37:57.139Z,978.48
2018-03-02T01:38:57.305Z,978.51
2018-03-02T01:39:57.710Z,978.51
2018-03-02T01:40:57.636Z,978.51
2018-03-02T01:41:57.821Z,978.46
2018-03-02T01:43:58.139Z,978.41
2018-03-02T01:44:58.305Z,978.43
2018-03-02T01:45:58.466Z,978.39
2018-03-02T01:46:58.635Z,978.39
2018-03-02T01:47:58.804Z,978.37
2018-03-02T01:48:58.964Z,978.41
2018-03-02T01:49:59.136Z,978.38
2018-03-02T01:50:59.304Z,978.38
2018-03-02T01:51:59.469Z,978.37
2018-03-02T01:52:59.638Z,978.36
2018-03-02T01:53:59.806Z,978.41
2018-03-02T01:54:59.971Z,978.36
2018-03-02T01:56:00.472Z,978.35
2018-03-02T01:57:00.310Z,978.35
2018-03-02T01:58:00.481Z,978.35
2018-03-02T01:59:00.639Z,978.36
2018-03-02T02:00:00.804Z,978.36
2018-03-02T02:01:00.978Z,978.33
2018-03-02T02:02:01.153Z,978.36
2018-03-02T02:03:01.318Z,978.38
2018-03-02T02:04:01.480Z,978.36
2018-03-02T02:05:01.648Z,978.35
2018-03-02T02:06:01.812Z,978.37
2018-03-02T02:07:01.982Z,978.40
2018-03-02T02:08:02.152Z,978.30
2018-03-02T02:09:02.317Z,978.28
2018-03-02T02:10:02.487Z,978.31
2018-03-02T02:11:02.651Z,978.28
2018-03-02T02:12:02.820Z,978.24
2018-03-02T02:13:02.988Z,978.29
2018-03-02T02:14:03.153Z,978.23
2018-03-02T02:15:03.323Z,978.16
2018-03-02T02:16:03.491Z,978.14
2018-03-02T02:17:03.658Z,978.11
2018-03-02T02:18:03.831Z,978.14
2018-03-02T02:19:03.997Z,978.12
2018-03-02T02:20:04.165Z,978.11
2018-03-02T02:21:04.329Z,978.13
2018-03-02T02:22:04.502Z,978.14
2018-03-02T02:23:04.672Z,978.09
2018-03-02T02:24:04.840Z,978.05
2018-03-02T02:25:05.001Z,978.06
2018-03-02T02:26:05.167Z,978.06
2018-03-02T02:27:05.335Z,978.08
2018-03-02T02:28:05.501Z,978.03
2018-03-02T02:29:05.669Z,978.03
2018-03-02T02:30:05.845Z,977.99
2018-03-02T02:31:06.006Z,978.03
2018-03-02T02:32:06.173Z,977.96
2018-03-02T02:33:06.339Z,978.00
2018-03-02T02:34:06.509Z,978.02
2018-03-02T02:35:06.671Z,977.98
2018-03-02T02:36:06.847Z,978.01
2018-03-02T02:37:07.015Z,978.01
2018-03-02T02:38:07.182Z,977.99
2018-03-02T02:39:07.348Z,978.01
2018-03-02T02:40:07.514Z,978.02
2018-03-02T02:41:07.682Z,978.05
2018-03-02T02:42:07.849Z,978.01
2018-03-02T02:43:08.022Z,978.03
2018-03-02T02:44:08.200Z,978.00
2018-03-02T02:45:08.361Z,977.99
2018-03-02T02:46:08.529Z,977.93
2018-03-02T02:47:08.699Z,977.89
2018-03-02T02:48:08.863Z,977.92
2018-03-02T02:49:09.029Z,977.86
2018-03-02T02:50:09.202Z,977.86
2018-03-02T02:51:09.366Z,977.87
2018-03-02T02:52:09.538Z,977.82
2018-03-02T02:53:09.708Z,977.82
2018-03-02T02:54:09.874Z,977.77
2018-03-02T02:55:10.037Z,977.69
2018-03-02T02:56:10.203Z,977.74
2018-03-02T02:57:10.374Z,977.72
2018-03-02T02:58:10.540Z,977.73
2018-03-02T02:59:10.710Z,977.77
2018-03-02T03:00:10.877Z,977.73
2018-03-02T03:01:11.045Z,977.74
2018-03-02T03:02:11.209Z,977.72
2018-03-02T03:03:11.381Z,977.69
2018-03-02T03:04:11.542Z,977.66
2018-03-02T03:05:11.711Z,977.64
2018-03-02T03:06:11.876Z,977.65
2018-03-02T03:07:12.048Z,977.72
2018-03-02T03:08:12.228Z,977.70
2018-03-02T03:09:12.380Z,977.82
2018-03-02T03:10:12.558Z,977.79
2018-03-02T03:11:12.705Z,977.76
2018-03-02T03:12:12.875Z,977.76
2018-03-02T03:13:13.040Z,977.74
2018-03-02T03:14:13.215Z,977.74
2018-03-02T03:15:13.383Z,977.78
2018-03-02T03:16:13.550Z,977.74
2018-03-02T03:18:13.876Z,977.78
2018-03-02T03:19:14.044Z,977.76
2018-03-02T03:20:14.219Z,977.75
2018-03-02T03:21:14.384Z,977.78
2018-03-02T03:22:14.552Z,977.75
2018-03-02T03:23:14.729Z,977.79
2018-03-02T03:24:14.889Z,977.73
2018-03-02T03:25:15.059Z,977.71
2018-03-02T03:26:15.684Z,977.68
2018-03-02T03:27:15.398Z,977.65
2018-03-02T03:28:15.564Z,977.65
2018-03-02T03:29:15.730Z,977.63
2018-03-02T03:30:15.901Z,977.57
2018-03-02T03:31:16.065Z,977.59
2018-03-02T03:32:16.240Z,977.61
2018-03-02T03:33:16.408Z,977.57
2018-03-02T03:34:16.573Z,977.45
2018-03-02T03:35:16.744Z,977.54
2018-03-02T03:36:16.913Z,977.49
2018-03-02T03:37:17.129Z,977.57
2018-03-02T03:38:17.244Z,977.55
2018-03-02T03:39:17.412Z,977.50
2018-03-02T03:40:17.588Z,977.50
2018-03-02T03:41:17.751Z,977.45
2018-03-02T03:42:17.917Z,977.37
2018-03-02T03:43:18.387Z,977.33
2018-03-02T03:44:18.262Z,977.27
2018-03-02T03:45:18.420Z,977.23
2018-03-02T03:46:18.590Z,977.23
2018-03-02T03:47:18.755Z,977.28
2018-03-02T03:48:18.917Z,977.24
2018-03-02T03:49:19.086Z,977.31
2018-03-02T03:50:19.256Z,977.33
2018-03-02T03:51:19.417Z,977.34
2018-03-02T03:52:19.588Z,977.34
2018-03-02T03:53:19.751Z,977.37
2018-03-02T03:54:19.920Z,977.28
2018-03-02T03:55:20.084Z,977.27
2018-03-02T03:56:20.257Z,977.35
2018-03-02T03:57:20.420Z,977.32
2018-03-02T03:58:20.585Z,977.28
2018-03-02T03:59:20.759Z,977.30
2018-03-02T04:00:20.918Z,977.27
2018-03-02T04:01:21.081Z,977.34
2018-03-02T04:02:21.262Z,977.25
2018-03-02T04:03:21.436Z,977.31
2018-03-02T04:04:21.596Z,977.26
2018-03-02T04:05:21.772Z,977.29
2018-03-02T04:06:22.189Z,977.34
2018-03-02T04:07:22.094Z,977.19
2018-03-02T04:08:22.265Z,977.18
2018-03-02T04:09:22.436Z,977.13
2018-03-02T04:10:22.605Z,977.08
2018-03-02T04:11:22.770Z,977.10
2018-03-02T04:12:22.940Z,977.06
2018-03-02T04:13:23.106Z,977.00
2018-03-02T04:14:23.278Z,976.99
2018-03-02T04:15:23.447Z,976.94
2018-03-02T04:16:23.616Z,976.91
2018-03-02T04:17:23.782Z,976.88
2018-03-02T04:18:23.951Z,976.90
2018-03-02T04:19:24.361Z,976.82
2018-03-02T04:20:24.284Z,976.85
2018-03-02T04:21:24.452Z,976.92
2018-03-02T04:22:24.620Z,976.88
2018-03-02T04:23:24.792Z,976.87
2018-03-02T04:24:24.991Z,976.86
2018-03-02T04:25:25.123Z,976.83
2018-03-02T04:26:25.292Z,976.90
2018-03-02T04:27:25.461Z,976.84
2018-03-02T04:28:25.638Z,976.86
2018-03-02T04:29:25.806Z,976.82
2018-03-02T04:30:25.972Z,976.84
2018-03-02T04:31:26.136Z,976.78
2018-03-02T04:32:26.309Z,976.73
2018-03-02T04:33:26.470Z,976.74
2018-03-02T04:34:26.636Z,976.72
2018-03-02T04:35:26.806Z,976.76
2018-03-02T04:36:26.972Z,976.78
2018-03-02T04:37:27.142Z,976.81
2018-03-02T04:38:27.318Z,976.89
2018-03-02T04:39:27.491Z,976.97
2018-03-02T04:40:27.639Z,976.96
2018-03-02T04:41:27.810Z,976.93
2018-03-02T04:42:27.966Z,976.92
2018-03-02T04:43:28.140Z,976.95
2018-03-02T04:44:28.302Z,976.95
2018-03-02T04:45:28.712Z,976.96
2018-03-02T04:46:28.643Z,976.90
2018-03-02T04:47:28.806Z,976.95
2018-03-02T04:48:28.976Z,976.89
2018-03-02T04:49:29.140Z,976.95
2018-03-02T04:50:29.309Z,976.88
2018-03-02T04:51:29.472Z,976.90
2018-03-02T04:52:29.643Z,976.88
2018-03-02T04:53:29.810Z,976.89
2018-03-02T04:54:29.975Z,976.90
2018-03-02T04:55:30.143Z,976.93
2018-03-02T04:56:30.305Z,976.96
2018-03-02T04:57:30.473Z,976.97
2018-03-02T04:58:30.644Z,976.89
2018-03-02T04:59:30.859Z,976.95
2018-03-02T05:00:31.039Z,976.82
2018-03-02T05:01:31.203Z,976.84
2018-03-02T05:02:31.371Z,976.87
2018-03-02T05:03:31.537Z,976.88
2018-03-02T05:04:31.716Z,976.87
2018-03-02T05:05:31.875Z,976.90
2018-03-02T05:06:32.047Z,976.88
2018-03-02T05:07:32.206Z,976.75
2018-03-02T05:08:32.376Z,976.75
2018-03-02T05:09:32.540Z,976.70
2018-03-02T05:10:32.708Z,976.73
2018-03-02T05:11:32.872Z,976.71
2018-03-02T05:12:33.057Z,976.66
2018-03-02T05:13:33.187Z,976.74
2018-03-02T05:14:33.359Z,976.69
2018-03-02T05:15:33.532Z,976.69
2018-03-02T05:16:33.696Z,976.72
2018-03-02T05:17:33.862Z,976.68
2018-03-02T05:18:34.034Z,976.71
2018-03-02T05:19:34.200Z,976.72
2018-03-02T05:20:34.371Z,976.70
2018-03-02T05:21:34.538Z,976.80
2018-03-02T05:22:34.716Z,976.70
2018-03-02T05:23:34.873Z,976.67
2018-03-02T05:24:35.035Z,976.70
2018-03-02T05:25:35.203Z,976.63
2018-03-02T05:26:35.380Z,976.57
2018-03-02T05:27:35.543Z,976.52
2018-03-02T05:28:35.728Z,976.61
2018-03-02T05:29:35.879Z,976.55
2018-03-02T05:30:36.045Z,976.61
2018-03-02T05:31:36.208Z,976.55
2018-03-02T05:32:36.374Z,976.49
2018-03-02T05:33:36.547Z,976.55
2018-03-02T05:34:36.711Z,976.47
2018-03-02T05:35:36.879Z,976.47
2018-03-02T05:36:37.050Z,976.48
2018-03-02T05:37:37.215Z,976.50
2018-03-02T05:38:37.380Z,976.50
2018-03-02T05:39:37.553Z,976.50
2018-03-02T05:40:37.749Z,976.52
2018-03-02T05:41:37.876Z,976.46
2018-03-02T05:42:38.040Z,976.48
2018-03-02T05:43:38.213Z,976.45
2018-03-02T05:44:38.374Z,976.42
2018-03-02T05:45:38.542Z,976.37
2018-03-02T05:46:38.708Z,976.32
2018-03-02T05:47:38.886Z,976.32
2018-03-02T05:48:39.053Z,976.39
2018-03-02T05:49:39.222Z,976.30
2018-03-02T05:50:39.402Z,976.37
2018-03-02T05:51:39.559Z,976.35
2018-03-02T05:52:39.720Z,976.32
2018-03-02T05:53:39.898Z,976.25
2018-03-02T05:54:40.061Z,976.22
2018-03-02T05:55:40.227Z,976.19
2018-03-02T05:56:40.393Z,976.19
2018-03-02T05:57:40.561Z,976.25
2018-03-02T05:58:40.747Z,976.21
2018-03-02T05:59:40.915Z,976.28
2018-03-02T06:00:41.081Z,976.27
2018-03-02T06:01:41.254Z,976.30
2018-03-02T06:02:41.432Z,976.18
2018-03-02T06:03:41.834Z,976.13
2018-03-02T06:04:41.766Z,976.02
2018-03-02T06:05:41.934Z,976.04
2018-03-02T06:06:42.120Z,976.06
2018-03-02T06:07:42.285Z,976.04
2018-03-02T06:08:42.443Z,976.01
2018-03-02T06:09:42.612Z,975.97
2018-03-02T06:10:42.782Z,975.95
2018-03-02T06:11:42.965Z,975.97
2018-03-02T06:12:43.119Z,975.94
2018-03-02T06:13:43.293Z,975.97
2018-03-02T06:14:43.455Z,975.94
2018-03-02T06:15:43.619Z,975.99
2018-03-02T06:16:44.033Z,975.95
2018-03-02T06:17:43.958Z,976.02
2018-03-02T06:18:44.128Z,975.92
2018-03-02T06:19:44.295Z,975.89
2018-03-02T06:20:44.465Z,975.87
2018-03-02T06:21:44.623Z,975.86
2018-03-02T06:22:44.814Z,975.84
2018-03-02T06:23:44.956Z,975.87
2018-03-02T06:24:45.134Z,975.84
2018-03-02T06:25:45.291Z,975.82
2018-03-02T06:26:45.471Z,975.90
2018-03-02T06:27:45.620Z,975.89
2018-03-02T06:28:45.787Z,975.91
2018-03-02T06:29:45.960Z,975.90
2018-03-02T06:30:46.124Z,975.92
2018-03-02T06:31:46.294Z,975.96
2018-03-02T06:32:46.459Z,975.92
2018-03-02T06:33:46.633Z,975.91
2018-03-02T06:34:46.800Z,975.96
2018-03-02T06:35:46.962Z,975.95
2018-03-02T06:36:47.124Z,976.00
2018-03-02T06:37:47.296Z,975.97
2018-03-02T06:38:47.464Z,975.99
2018-03-02T06:39:47.626Z,976.02
2018-03-02T06:40:47.801Z,975.94
2018-03-02T06:41:47.958Z,976.04
2018-03-02T06:42:48.386Z,975.93
2018-03-02T06:43:48.303Z,976.01
2018-03-02T06:44:48.468Z,975.85
2018-03-02T06:45:48.629Z,975.91
2018-03-02T06:46:48.799Z,975.90
2018-03-02T06:47:48.967Z,975.85
2018-03-02T06:48:49.135Z,975.90
2018-03-02T06:49:49.302Z,975.84
2018-03-02T06:50:49.467Z,975.75
2018-03-02T06:51:49.638Z,975.75
2018-03-02T06:52:49.795Z,975.75
2018-03-02T06:53:49.970Z,975.74
2018-03-02T06:54:50.139Z,975.63
2018-03-02T06:55:50.855Z,975.66
2018-03-02T06:56:50.463Z,975.63
2018-03-02T06:57:50.629Z,975.61
2018-03-02T06:58:50.793Z,975.55
2018-03-02T06:59:50.959Z,975.72
2018-03-02T07:00:51.125Z,975.67
2018-03-02T07:01:51.302Z,975.61
2018-03-02T07:02:51.472Z,975.61
2018-03-02T07:03:51.633Z,975.60
2018-03-02T07:04:51.809Z,975.66
2018-03-02T07:05:51.962Z,975.67
2018-03-02T07:06:52.128Z,975.62
2018-03-02T07:07:52.304Z,975.69
2018-03-02T07:08:52.467Z,975.66
2018-03-02T07:09:52.635Z,975.76
2018-03-02T07:10:52.809Z,975.74
2018-03-02T07:11:52.973Z,975.67
2018-03-02T07:12:53.136Z,975.79
2018-03-02T07:13:53.309Z,975.82
2018-03-02T07:14:53.467Z,975.68
2018-03-02T07:15:53.638Z,975.75
2018-03-02T07:16:53.818Z,975.69
2018-03-02T07:17:53.985Z,975.70
2018-03-02T07:18:54.157Z,975.70
2018-03-02T07:19:54.318Z,975.67
2018-03-02T07:20:54.484Z,975.70
2018-03-02T07:21:54.650Z,975.69
2018-03-02T07:22:54.878Z,975.63
2018-03-02T07:23:54.987Z,975.69
2018-03-02T07:24:55.157Z,975.67
2018-03-02T07:25:55.325Z,975.71
2018-03-02T07:26:55.485Z,975.71
2018-03-02T07:27:55.654Z,975.71
2018-03-02T07:28:55.832Z,975.69
2018-03-02T07:29:55.993Z,975.64
2018-03-02T07:30:56.181Z,975.62
2018-03-02T07:31:56.327Z,975.64
2018-03-02T07:32:56.485Z,975.64
2018-03-02T07:33:56.645Z,975.66
2018-03-02T07:34:56.861Z,975.63
2018-03-02T07:35:57.011Z,975.72
2018-03-02T07:36:57.296Z,975.69
2018-03-02T07:37:57.365Z,975.72
2018-03-02T07:38:57.529Z,975.70
2018-03-02T07:39:57.698Z,975.73
2018-03-02T07:40:57.870Z,975.75
2018-03-02T07:41:58.032Z,975.73
2018-03-02T07:42:58.199Z,975.71
2018-03-02T07:43:58.371Z,975.71
2018-03-02T07:44:58.530Z,975.76
2018-03-02T07:45:58.700Z,975.80
2018-03-02T07:46:58.865Z,975.79
2018-03-02T07:47:59.051Z,975.72
2018-03-02T07:48:59.207Z,975.70
2018-03-02T07:49:59.372Z,975.73
2018-03-02T07:50:59.546Z,975.80
2018-03-02T07:51:59.709Z,975.63
2018-03-02T07:52:59.877Z,975.71
2018-03-02T07:54:00.066Z,975.69
2018-03-02T07:55:00.206Z,975.60
2018-03-02T07:56:00.373Z,975.61
2018-03-02T07:57:00.557Z,975.61
2018-03-02T07:58:00.716Z,975.64
2018-03-02T07:59:00.881Z,975.55
2018-03-02T08:00:01.049Z,975.61
2018-03-02T08:01:01.221Z,975.55
2018-03-02T08:02:01.386Z,975.56
2018-03-02T08:03:01.556Z,975.56
2018-03-02T08:04:01.986Z,975.50
2018-03-02T08:05:01.893Z,975.42
2018-03-02T08:06:02.068Z,975.50
2018-03-02T08:07:02.241Z,975.44
2018-03-02T08:08:02.388Z,975.38
2018-03-02T08:09:02.554Z,975.44
2018-03-02T08:10:02.722Z,975.34
2018-03-02T08:11:02.890Z,975.48
2018-03-02T08:12:03.062Z,975.35
2018-03-02T08:13:03.233Z,975.43
2018-03-02T08:14:03.408Z,975.40
2018-03-02T08:15:03.571Z,975.47
2018-03-02T08:16:03.740Z,975.42
2018-03-02T08:17:03.913Z,975.49
2018-03-02T08:18:04.062Z,975.43
2018-03-02T08:19:04.238Z,975.52
2018-03-02T08:20:04.413Z,975.49
2018-03-02T08:21:04.580Z,975.44
2018-03-02T08:22:04.762Z,975.42
2018-03-02T08:23:04.920Z,975.45
2018-03-02T08:24:05.085Z,975.47
2018-03-02T08:25:05.254Z,975.43
2018-03-02T08:26:05.433Z,975.46
2018-03-02T08:27:05.602Z,975.48
2018-03-02T08:28:05.770Z,975.45
2018-03-02T08:29:05.940Z,975.43
2018-03-02T08:31:06.281Z,975.41
2018-03-02T08:32:06.450Z,975.31
2018-03-02T08:33:06.615Z,975.35
2018-03-02T08:34:06.786Z,975.34
2018-03-02T08:35:06.959Z,975.27
2018-03-02T08:36:07.132Z,975.30
2018-03-02T08:37:07.328Z,975.30
2018-03-02T08:38:07.467Z,975.27
2018-03-02T08:39:07.650Z,975.30
2018-03-02T08:40:08.198Z,975.31
2018-03-02T08:41:07.983Z,975.22
2018-03-02T08:42:08.156Z,975.23
2018-03-02T08:44:08.486Z,975.28
2018-03-02T08:45:08.674Z,975.34
2018-03-02T08:46:08.843Z,975.43
2018-03-02T08:47:09.017Z,975.44
2018-03-02T08:48:09.189Z,975.38
2018-03-02T08:49:09.359Z,975.44
2018-03-02T08:50:09.536Z,975.39
2018-03-02T08:51:09.703Z,975.37
2018-03-02T08:52:09.870Z,975.37
2018-03-02T08:53:10.049Z,975.28
2018-03-02T08:54:10.228Z,975.32
2018-03-02T08:55:10.396Z,975.32
2018-03-02T08:56:10.555Z,975.36
2018-03-02T08:57:10.740Z,975.29
2018-03-02T08:58:10.904Z,975.32
2018-03-02T08:59:11.084Z,975.31
2018-03-02T09:00:11.251Z,975.30
2018-03-02T09:01:11.435Z,975.23
2018-03-02T09:02:11.599Z,975.25
2018-03-02T09:04:11.957Z,975.18
2018-03-02T09:05:12.136Z,975.18
2018-03-02T09:06:12.318Z,975.17
2018-03-02T09:07:12.483Z,975.15
2018-03-02T09:08:12.657Z,975.16
2018-03-02T09:09:12.837Z,975.18
2018-03-02T09:10:12.998Z,975.17
2018-03-02T09:11:13.167Z,975.19
2018-03-02T09:12:13.349Z,975.17
2018-03-02T09:13:13.514Z,975.15
2018-03-02T09:14:13.683Z,975.10
2018-03-02T09:15:13.855Z,975.14
2018-03-02T09:16:14.034Z,975.03
2018-03-02T09:17:14.216Z,975.06
2018-03-02T09:18:14.393Z,975.01
2018-03-02T09:19:14.551Z,975.06
2018-03-02T09:20:14.731Z,975.06
2018-03-02T09:21:14.880Z,975.05
2018-03-02T09:22:15.075Z,975.05
2018-03-02T09:23:15.246Z,975.02
2018-03-02T09:24:15.422Z,975.01
2018-03-02T09:25:15.609Z,975.00
2018-03-02T09:26:15.790Z,975.05
2018-03-02T09:27:15.948Z,974.91
2018-03-02T09:28:16.117Z,975.05
2018-03-02T09:29:16.289Z,974.99
2018-03-02T09:30:16.468Z,975.04
2018-03-02T09:31:16.637Z,975.10
2018-03-02T09:32:16.865Z,975.10
2018-03-02T09:33:16.991Z,975.10
2018-03-02T09:34:17.204Z,975.08
2018-03-02T09:35:17.332Z,975.04
2018-03-02T09:36:17.510Z,975.09
2018-03-02T09:37:17.696Z,975.12
2018-03-02T09:38:17.851Z,975.10
2018-03-02T09:39:18.026Z,975.06
2018-03-02T09:40:18.204Z,975.12
2018-03-02T09:41:18.383Z,975.01
2018-03-02T09:42:18.544Z,975.01
2018-03-02T09:43:18.718Z,975.00
2018-03-02T09:44:18.899Z,975.02
2018-03-02T09:45:19.070Z,975.04
2018-03-02T09:46:19.246Z,975.00
2018-03-02T09:47:19.425Z,975.08
2018-03-02T09:48:19.657Z,975.06
2018-03-02T09:49:19.774Z,975.10
2018-03-02T09:50:19.953Z,975.03
2018-03-02T09:51:20.125Z,975.02
2018-03-02T09:52:20.308Z,975.05
2018-03-02T09:53:20.473Z,975.04
2018-03-02T09:54:20.650Z,975.05
2018-03-02T09:55:20.827Z,975.05
2018-03-02T09:56:21.011Z,975.06
2018-03-02T09:57:21.176Z,975.09
2018-03-02T09:58:21.350Z,975.17
2018-03-02T09:59:21.530Z,975.12
2018-03-02T10:00:21.697Z,975.06
2018-03-02T10:01:21.877Z,975.08
2018-03-02T10:02:22.053Z,975.06
2018-03-02T10:03:22.224Z,975.06
2018-03-02T10:04:22.393Z,975.04
2018-03-02T10:05:22.566Z,975.05
2018-03-02T10:06:22.751Z,975.11
2018-03-02T10:07:22.943Z,975.10
2018-03-02T10:08:23.110Z,975.09
2018-03-02T10:09:23.282Z,975.00
2018-03-02T10:10:23.490Z,975.00
2018-03-02T10:11:23.635Z,975.01
2018-03-02T10:12:23.808Z,974.98
2018-03-02T10:13:23.993Z,975.08
2018-03-02T10:14:24.164Z,975.07
2018-03-02T10:15:24.348Z,975.05
2018-03-02T10:16:24.522Z,974.99
2018-03-02T10:17:24.698Z,974.96
2018-03-02T10:18:24.883Z,975.02
2018-03-02T10:19:25.065Z,974.94
2018-03-02T10:20:25.235Z,974.89
2018-03-02T10:21:25.419Z,974.96
2018-03-02T10:22:25.597Z,974.95
2018-03-02T10:23:26.180Z,974.92
2018-03-02T10:24:25.951Z,974.87
2018-03-02T10:25:26.141Z,974.85
2018-03-02T10:26:26.317Z,974.79
2018-03-02T10:27:26.492Z,974.83
2018-03-02T10:28:26.702Z,974.74
2018-03-02T10:29:26.836Z,974.77
2018-03-02T10:30:27.012Z,974.70
2018-03-02T10:31:27.191Z,974.64
2018-03-02T10:32:27.362Z,974.76
2018-03-02T10:33:27.545Z,974.70
2018-03-02T10:34:27.726Z,974.67
2018-03-02T10:35:27.894Z,974.68
2018-03-02T10:36:28.075Z,974.73
2018-03-02T10:37:28.243Z,974.81
2018-03-02T10:38:28.423Z,974.74
2018-03-02T10:39:28.596Z,974.67
2018-03-02T10:40:28.770Z,974.73
2018-03-02T10:41:28.993Z,974.74
2018-03-02T10:42:29.124Z,974.73
2018-03-02T10:43:29.288Z,974.73
2018-03-02T10:44:29.467Z,974.69
2018-03-02T10:45:29.661Z,974.70
2018-03-02T10:46:29.842Z,974.64
2018-03-02T10:47:29.995Z,974.71
2018-03-02T10:48:30.169Z,974.66
2018-03-02T10:49:30.362Z,974.62
2018-03-02T10:50:30.547Z,974.60
2018-03-02T10:51:30.723Z,974.57
2018-03-02T10:52:30.896Z,974.46
2018-03-02T10:53:31.078Z,974.43
2018-03-02T10:54:31.253Z,974.38
2018-03-02T10:55:31.436Z,974.35
2018-03-02T10:56:31.609Z,974.42
2018-03-02T10:57:52.791Z,974.38
2018-03-02T10:58:31.939Z,974.37
2018-03-02T10:59:32.106Z,974.29
2018-03-02T11:00:32.279Z,974.29
2018-03-02T11:01:32.442Z,974.26
2018-03-02T11:02:32.624Z,974.20
2018-03-02T11:03:32.804Z,974.19
2018-03-02T11:04:32.985Z,974.23
2018-03-02T11:05:33.170Z,974.21
2018-03-02T11:06:33.344Z,974.18
2018-03-02T11:07:33.531Z,974.19
2018-03-02T11:08:33.698Z,974.23
2018-03-02T11:09:33.877Z,974.25
2018-03-02T11:10:34.054Z,974.15
2018-03-02T11:11:34.223Z,974.17
2018-03-02T11:12:34.409Z,974.17
2018-03-02T11:13:34.576Z,974.13
2018-03-02T11:14:34.755Z,974.13
2018-03-02T11:15:34.931Z,974.15
2018-03-02T11:16:35.108Z,974.21
2018-03-02T11:17:35.287Z,974.20
2018-03-02T11:18:35.459Z,974.21
2018-03-02T11:19:35.644Z,974.11
2018-03-02T11:20:35.816Z,974.19
2018-03-02T11:21:36.002Z,974.10
2018-03-02T11:22:36.175Z,974.17
2018-03-02T11:23:36.359Z,974.18
2018-03-02T11:24:36.532Z,974.06
2018-03-02T11:25:36.713Z,974.08
2018-03-02T11:26:36.904Z,974.11
2018-03-02T11:27:37.078Z,974.08
2018-03-02T11:28:37.259Z,974.04
2018-03-02T11:29:37.437Z,974.04
2018-03-02T11:30:37.619Z,974.00
2018-03-02T11:31:37.798Z,974.00
2018-03-02T11:32:37.972Z,974.19
2018-03-02T11:33:38.154Z,974.00
2018-03-02T11:34:38.335Z,974.09
2018-03-02T11:35:38.512Z,974.00
2018-03-02T11:36:38.667Z,974.11
2018-03-02T11:37:38.842Z,974.08
2018-03-02T11:38:39.022Z,974.07
2018-03-02T11:39:39.206Z,973.94
2018-03-02T11:40:39.408Z,973.96
2018-03-02T11:41:39.552Z,974.00
2018-03-02T11:42:39.735Z,973.93
2018-03-02T11:43:39.908Z,973.93
2018-03-02T11:44:40.168Z,973.99
2018-03-02T11:45:40.333Z,973.92
2018-03-02T11:46:40.510Z,973.96
2018-03-02T11:47:40.697Z,973.96
2018-03-02T11:48:40.876Z,973.94
2018-03-02T11:49:41.043Z,973.98
2018-03-02T11:50:41.222Z,974.02
2018-03-02T11:51:41.415Z,974.04
2018-03-02T11:52:41.680Z,973.94
2018-03-02T11:53:41.775Z,973.91
2018-03-02T11:54:41.951Z,974.00
2018-03-02T11:55:42.116Z,973.99
2018-03-02T11:56:42.300Z,973.97
2018-03-02T11:57:42.473Z,973.99
2018-03-02T11:58:42.655Z,974.02
2018-03-02T11:59:42.819Z,974.01
2018-03-02T12:00:43.033Z,974.00
2018-03-02T12:01:43.193Z,973.98
2018-03-02T12:02:43.372Z,973.96
2018-03-02T12:03:43.552Z,973.99
2018-03-02T12:04:43.720Z,974.02
2018-03-02T12:05:43.896Z,973.94
2018-03-02T12:06:44.078Z,973.98
2018-03-02T12:08:44.439Z,974.00
2018-03-02T12:09:44.602Z,973.93
2018-03-02T12:10:44.780Z,974.05
2018-03-02T12:11:44.966Z,974.01
2018-03-02T12:12:45.140Z,973.98
2018-03-02T12:13:45.323Z,973.97
2018-03-02T12:14:45.498Z,973.97
2018-03-02T12:15:45.673Z,973.98
2018-03-02T12:16:45.930Z,973.94
2018-03-02T12:17:46.044Z,973.96
2018-03-02T12:18:46.216Z,973.93
2018-03-02T12:19:46.397Z,973.90
2018-03-02T12:20:46.571Z,973.90
2018-03-02T12:21:46.759Z,973.90
2018-03-02T12:22:46.938Z,974.01
2018-03-02T12:23:47.097Z,973.98
2018-03-02T12:24:47.583Z,973.96
2018-03-02T12:25:47.515Z,973.92
2018-03-02T12:26:47.692Z,973.87
2018-03-02T12:27:47.895Z,973.90
2018-03-02T12:28:48.037Z,973.82
2018-03-02T12:29:48.260Z,973.78
2018-03-02T12:30:48.395Z,973.86
2018-03-02T12:31:48.568Z,973.75
2018-03-02T12:32:48.744Z,973.74
2018-03-02T12:33:48.917Z,973.74
2018-03-02T12:34:49.094Z,973.72
2018-03-02T12:35:49.320Z,973.62
2018-03-02T12:36:49.428Z,973.64